JST740 YMHB-YMML
Flight info
| Callsign | JST740 |
|---|---|
| Flight time | 1h 1m |
| Altitude | 36000 |
| Route | TASUM H111 LT H215 RAZZI W687 ML |
| Aircraft | A320/M-SDE3FGHIRWY/LB1 |
Departure
| Time | 2026-04-26 05:03 |
|---|---|
| Airport | Hobart International Airport (YMHB) |
Arrival
| Time | 2026-04-26 06:04 |
|---|---|
| Airport | Melbourne Airport (YMML) |
| Time | Latitude | Longitude | Altitude | Speed | Heading |
|---|---|---|---|---|---|
| 2026-04-26 04:40 | -42.83776 | 147.50721 | 23 ft | 0 kts | 275° |
| 2026-04-26 04:52 | -42.83776 | 147.50724 | 25 ft | 1 kts | 275° |
| 2026-04-26 04:52 | -42.83778 | 147.50748 | 23 ft | 3 kts | 276° |
| 2026-04-26 04:52 | -42.83780 | 147.50775 | 25 ft | 3 kts | 279° |
| 2026-04-26 04:53 | -42.83784 | 147.50802 | 23 ft | 3 kts | 287° |
| 2026-04-26 04:53 | -42.83791 | 147.50827 | 27 ft | 3 kts | 307° |
| 2026-04-26 04:53 | -42.83800 | 147.50840 | 23 ft | 1 kts | 332° |
| 2026-04-26 04:53 | -42.83801 | 147.50841 | 23 ft | 1 kts | 332° |
| 2026-04-26 04:56 | -42.83795 | 147.50837 | 23 ft | 2 kts | 332° |
| 2026-04-26 04:56 | -42.83776 | 147.50822 | 24 ft | 4 kts | 330° |
| 2026-04-26 04:57 | -42.83740 | 147.50796 | 23 ft | 7 kts | 340° |
| 2026-04-26 04:57 | -42.83692 | 147.50818 | 24 ft | 8 kts | 42° |
| 2026-04-26 04:57 | -42.83677 | 147.50884 | 26 ft | 8 kts | 108° |
| 2026-04-26 04:57 | -42.83714 | 147.50943 | 27 ft | 9 kts | 135° |
| 2026-04-26 04:58 | -42.83767 | 147.51016 | 27 ft | 13 kts | 135° |
| 2026-04-26 04:58 | -42.83819 | 147.51087 | 25 ft | 10 kts | 135° |
| 2026-04-26 04:58 | -42.83866 | 147.51159 | 26 ft | 10 kts | 112° |
| 2026-04-26 04:58 | -42.83835 | 147.51232 | 25 ft | 8 kts | 44° |
| 2026-04-26 04:59 | -42.83821 | 147.51250 | 25 ft | 0 kts | 44° |
| 2026-04-26 04:59 | -42.83812 | 147.51261 | 26 ft | 4 kts | 43° |
| 2026-04-26 04:59 | -42.83781 | 147.51301 | 23 ft | 8 kts | 43° |
| 2026-04-26 05:00 | -42.83771 | 147.51385 | 22 ft | 12 kts | 121° |
| 2026-04-26 05:00 | -42.83839 | 147.51481 | 21 ft | 16 kts | 133° |
| 2026-04-26 05:00 | -42.83922 | 147.51596 | 22 ft | 18 kts | 136° |
| 2026-04-26 05:00 | -42.84016 | 147.51722 | 21 ft | 20 kts | 135° |
| 2026-04-26 05:01 | -42.84116 | 147.51857 | 24 ft | 20 kts | 135° |
| 2026-04-26 05:01 | -42.84222 | 147.51998 | 24 ft | 22 kts | 135° |
| 2026-04-26 05:01 | -42.84335 | 147.52153 | 23 ft | 25 kts | 135° |
| 2026-04-26 05:01 | -42.84454 | 147.52297 | 24 ft | 20 kts | 158° |
| 2026-04-26 05:02 | -42.84564 | 147.52369 | 19 ft | 13 kts | 135° |
| 2026-04-26 05:02 | -42.84545 | 147.52425 | 20 ft | 9 kts | 5° |
| 2026-04-26 05:02 | -42.84501 | 147.52378 | 21 ft | 8 kts | 315° |
| 2026-04-26 05:02 | -42.84370 | 147.52202 | 23 ft | 59 kts | 315° |
| 2026-04-26 05:03 | -42.83928 | 147.51602 | 21 ft | 118 kts | 315° |
| 2026-04-26 05:03 | -42.83241 | 147.50692 | 193 ft | 142 kts | 317° |
| 2026-04-26 05:03 | -42.82534 | 147.49765 | 720 ft | 141 kts | 319° |
| 2026-04-26 05:03 | -42.81823 | 147.48799 | 1124 ft | 146 kts | 313° |
| 2026-04-26 05:04 | -42.81108 | 147.47821 | 1717 ft | 147 kts | 313° |
| 2026-04-26 05:04 | -42.80262 | 147.46883 | 1997 ft | 172 kts | 333° |
| 2026-04-26 05:04 | -42.78981 | 147.46618 | 2281 ft | 200 kts | 352° |
| 2026-04-26 05:04 | -42.77515 | 147.46414 | 2593 ft | 224 kts | 349° |
| 2026-04-26 05:05 | -42.75880 | 147.46124 | 3105 ft | 247 kts | 349° |
| 2026-04-26 05:05 | -42.74144 | 147.45812 | 3978 ft | 255 kts | 349° |
| 2026-04-26 05:05 | -42.72374 | 147.45502 | 4950 ft | 259 kts | 349° |
| 2026-04-26 05:05 | -42.70575 | 147.45194 | 5924 ft | 262 kts | 348° |
| 2026-04-26 05:06 | -42.68754 | 147.44886 | 6845 ft | 265 kts | 348° |
| 2026-04-26 05:06 | -42.66915 | 147.44579 | 7748 ft | 267 kts | 348° |
| 2026-04-26 05:06 | -42.65060 | 147.44272 | 8633 ft | 270 kts | 349° |
| 2026-04-26 05:06 | -42.63214 | 147.43967 | 9536 ft | 272 kts | 348° |
| 2026-04-26 05:07 | -42.61325 | 147.43654 | 10266 ft | 280 kts | 348° |
| 2026-04-26 05:07 | -42.59308 | 147.43312 | 10520 ft | 303 kts | 348° |
| 2026-04-26 05:07 | -42.57170 | 147.42951 | 11071 ft | 312 kts | 348° |
| 2026-04-26 05:07 | -42.54995 | 147.42593 | 11792 ft | 316 kts | 348° |
| 2026-04-26 05:08 | -42.52800 | 147.42233 | 12573 ft | 318 kts | 348° |
| 2026-04-26 05:08 | -42.50591 | 147.41871 | 13329 ft | 321 kts | 348° |
| 2026-04-26 05:08 | -42.48361 | 147.41508 | 14039 ft | 324 kts | 348° |
| 2026-04-26 05:08 | -42.46111 | 147.41146 | 14705 ft | 326 kts | 348° |
| 2026-04-26 05:09 | -42.43847 | 147.40778 | 15334 ft | 329 kts | 348° |
| 2026-04-26 05:09 | -42.41562 | 147.40404 | 15981 ft | 332 kts | 348° |
| 2026-04-26 05:09 | -42.39257 | 147.40027 | 16620 ft | 335 kts | 348° |
| 2026-04-26 05:09 | -42.36931 | 147.39642 | 17280 ft | 337 kts | 348° |
| 2026-04-26 05:10 | -42.34591 | 147.39256 | 17901 ft | 341 kts | 348° |
| 2026-04-26 05:10 | -42.32228 | 147.38870 | 18533 ft | 343 kts | 348° |
| 2026-04-26 05:10 | -42.29844 | 147.38480 | 19108 ft | 346 kts | 348° |
| 2026-04-26 05:10 | -42.27441 | 147.38086 | 19669 ft | 350 kts | 348° |
| 2026-04-26 05:11 | -42.25041 | 147.37696 | 20236 ft | 354 kts | 348° |
| 2026-04-26 05:11 | -42.22580 | 147.37297 | 20747 ft | 358 kts | 348° |
| 2026-04-26 05:11 | -42.20096 | 147.36891 | 21298 ft | 361 kts | 348° |
| 2026-04-26 05:11 | -42.17600 | 147.36442 | 21834 ft | 363 kts | 346° |
| 2026-04-26 05:12 | -42.15097 | 147.35882 | 22354 ft | 366 kts | 345° |
| 2026-04-26 05:12 | -42.12579 | 147.35255 | 22892 ft | 369 kts | 344° |
| 2026-04-26 05:12 | -42.10043 | 147.34605 | 23415 ft | 373 kts | 344° |
| 2026-04-26 05:12 | -42.07476 | 147.33953 | 23881 ft | 377 kts | 344° |
| 2026-04-26 05:13 | -42.04890 | 147.33311 | 24319 ft | 380 kts | 345° |
| 2026-04-26 05:13 | -42.02280 | 147.32676 | 24756 ft | 383 kts | 345° |
| 2026-04-26 05:13 | -41.99647 | 147.32045 | 25183 ft | 386 kts | 345° |
| 2026-04-26 05:13 | -41.96990 | 147.31413 | 25603 ft | 388 kts | 345° |
| 2026-04-26 05:14 | -41.94323 | 147.30781 | 26022 ft | 391 kts | 345° |
| 2026-04-26 05:14 | -41.91636 | 147.30144 | 26414 ft | 393 kts | 345° |
| 2026-04-26 05:14 | -41.88930 | 147.29500 | 26821 ft | 396 kts | 345° |
| 2026-04-26 05:14 | -41.86209 | 147.28852 | 27222 ft | 399 kts | 345° |
| 2026-04-26 05:15 | -41.83465 | 147.28200 | 27603 ft | 401 kts | 345° |
| 2026-04-26 05:15 | -41.80706 | 147.27547 | 27983 ft | 404 kts | 345° |
| 2026-04-26 05:15 | -41.77932 | 147.26888 | 28369 ft | 407 kts | 345° |
| 2026-04-26 05:15 | -41.75137 | 147.26225 | 28743 ft | 409 kts | 345° |
| 2026-04-26 05:16 | -41.72324 | 147.25558 | 29114 ft | 412 kts | 345° |
| 2026-04-26 05:16 | -41.69495 | 147.24887 | 29479 ft | 414 kts | 345° |
| 2026-04-26 05:16 | -41.66643 | 147.24208 | 29850 ft | 417 kts | 345° |
| 2026-04-26 05:16 | -41.63774 | 147.23526 | 30210 ft | 420 kts | 346° |
| 2026-04-26 05:17 | -41.60891 | 147.22844 | 30516 ft | 422 kts | 346° |
| 2026-04-26 05:17 | -41.58030 | 147.22172 | 30831 ft | 424 kts | 346° |
| 2026-04-26 05:17 | -41.55129 | 147.21435 | 31136 ft | 424 kts | 342° |
| 2026-04-26 05:17 | -41.52333 | 147.20213 | 31459 ft | 421 kts | 334° |
| 2026-04-26 05:18 | -41.49632 | 147.18731 | 31896 ft | 419 kts | 334° |
| 2026-04-26 05:18 | -41.46935 | 147.17260 | 32345 ft | 418 kts | 334° |
| 2026-04-26 05:18 | -41.44246 | 147.15800 | 32790 ft | 417 kts | 334° |
| 2026-04-26 05:18 | -41.41559 | 147.14347 | 33236 ft | 416 kts | 334° |
| 2026-04-26 05:19 | -41.38880 | 147.12899 | 33684 ft | 415 kts | 334° |
| 2026-04-26 05:19 | -41.37074 | 147.11922 | 33991 ft | 414 kts | 334° |
| 2026-04-26 05:19 | -41.34403 | 147.10475 | 34392 ft | 414 kts | 334° |
| 2026-04-26 05:19 | -41.31737 | 147.09033 | 34749 ft | 413 kts | 334° |
| 2026-04-26 05:20 | -41.29110 | 147.07612 | 35084 ft | 413 kts | 334° |
| 2026-04-26 05:20 | -41.25541 | 147.05684 | 35518 ft | 413 kts | 334° |
| 2026-04-26 05:20 | -41.23779 | 147.04735 | 35714 ft | 413 kts | 334° |
| 2026-04-26 05:20 | -41.21110 | 147.03302 | 36023 ft | 414 kts | 334° |
| 2026-04-26 05:21 | -41.18440 | 147.01869 | 36129 ft | 414 kts | 334° |
| 2026-04-26 05:21 | -41.15774 | 147.00441 | 36146 ft | 413 kts | 334° |
| 2026-04-26 05:21 | -41.10442 | 146.97580 | 36146 ft | 413 kts | 334° |
| 2026-04-26 05:22 | -41.05111 | 146.94719 | 36150 ft | 413 kts | 334° |
| 2026-04-26 05:22 | -40.99781 | 146.91856 | 36145 ft | 414 kts | 334° |
| 2026-04-26 05:23 | -40.94441 | 146.88999 | 36147 ft | 414 kts | 334° |
| 2026-04-26 05:23 | -40.89095 | 146.86147 | 36147 ft | 414 kts | 334° |
| 2026-04-26 05:24 | -40.83747 | 146.83292 | 36154 ft | 415 kts | 334° |
| 2026-04-26 05:24 | -40.78388 | 146.80450 | 36147 ft | 415 kts | 334° |
| 2026-04-26 05:25 | -40.73029 | 146.77608 | 36150 ft | 415 kts | 334° |
| 2026-04-26 05:25 | -40.67669 | 146.74764 | 36145 ft | 415 kts | 334° |
| 2026-04-26 05:26 | -40.62299 | 146.71929 | 36146 ft | 416 kts | 335° |
| 2026-04-26 05:26 | -40.56928 | 146.69094 | 36147 ft | 416 kts | 335° |
| 2026-04-26 05:27 | -40.51551 | 146.66262 | 36142 ft | 416 kts | 335° |
| 2026-04-26 05:27 | -40.46168 | 146.63428 | 36143 ft | 417 kts | 335° |
| 2026-04-26 05:28 | -40.40780 | 146.60591 | 36146 ft | 417 kts | 335° |
| 2026-04-26 05:28 | -40.35382 | 146.57768 | 36143 ft | 418 kts | 335° |
| 2026-04-26 05:29 | -40.29970 | 146.54936 | 36145 ft | 419 kts | 335° |
| 2026-04-26 05:29 | -40.24556 | 146.52104 | 36146 ft | 419 kts | 335° |
| 2026-04-26 05:30 | -40.19129 | 146.49279 | 36152 ft | 420 kts | 335° |
| 2026-04-26 05:30 | -40.13692 | 146.46455 | 36152 ft | 421 kts | 335° |
| 2026-04-26 05:31 | -40.08249 | 146.43619 | 36158 ft | 421 kts | 335° |
| 2026-04-26 05:31 | -40.02801 | 146.40781 | 36160 ft | 422 kts | 335° |
| 2026-04-26 05:32 | -39.97379 | 146.37976 | 36168 ft | 422 kts | 335° |
| 2026-04-26 05:32 | -39.91905 | 146.35160 | 36163 ft | 423 kts | 336° |
| 2026-04-26 05:33 | -39.86428 | 146.32363 | 36163 ft | 423 kts | 336° |
| 2026-04-26 05:33 | -39.80951 | 146.29554 | 36161 ft | 423 kts | 335° |
| 2026-04-26 05:34 | -39.75457 | 146.26734 | 36162 ft | 427 kts | 336° |
| 2026-04-26 05:34 | -39.69926 | 146.23905 | 36148 ft | 428 kts | 336° |
| 2026-04-26 05:35 | -39.64375 | 146.21067 | 36146 ft | 429 kts | 336° |
| 2026-04-26 05:35 | -39.58810 | 146.18235 | 36146 ft | 430 kts | 336° |
| 2026-04-26 05:36 | -39.53234 | 146.15395 | 36151 ft | 431 kts | 336° |
| 2026-04-26 05:36 | -39.47642 | 146.12555 | 36156 ft | 432 kts | 336° |
| 2026-04-26 05:37 | -39.44838 | 146.11137 | 35757 ft | 434 kts | 337° |
| 2026-04-26 05:37 | -39.42031 | 146.09723 | 35277 ft | 431 kts | 337° |
| 2026-04-26 05:37 | -39.39255 | 146.08324 | 34812 ft | 423 kts | 337° |
| 2026-04-26 05:37 | -39.36555 | 146.06960 | 34357 ft | 410 kts | 337° |
| 2026-04-26 05:38 | -39.33958 | 146.05645 | 34113 ft | 390 kts | 337° |
| 2026-04-26 05:38 | -39.31478 | 146.04393 | 34028 ft | 377 kts | 337° |
| 2026-04-26 05:38 | -39.29065 | 146.03175 | 33924 ft | 367 kts | 337° |
| 2026-04-26 05:38 | -39.26715 | 146.01989 | 33830 ft | 357 kts | 337° |
| 2026-04-26 05:39 | -39.22166 | 145.99697 | 33664 ft | 356 kts | 337° |
| 2026-04-26 05:39 | -39.17508 | 145.97352 | 33485 ft | 361 kts | 337° |
| 2026-04-26 05:40 | -39.15160 | 145.96171 | 33156 ft | 362 kts | 337° |
| 2026-04-26 05:40 | -39.12816 | 145.94992 | 32758 ft | 362 kts | 337° |
| 2026-04-26 05:40 | -39.10422 | 145.93786 | 32350 ft | 378 kts | 337° |
| 2026-04-26 05:40 | -39.07944 | 145.92541 | 31907 ft | 386 kts | 337° |
| 2026-04-26 05:41 | -39.05423 | 145.91279 | 31477 ft | 390 kts | 337° |
| 2026-04-26 05:41 | -39.02886 | 145.90012 | 31025 ft | 392 kts | 337° |
| 2026-04-26 05:41 | -39.00343 | 145.88740 | 30567 ft | 393 kts | 337° |
| 2026-04-26 05:41 | -38.97789 | 145.87463 | 30072 ft | 394 kts | 337° |
| 2026-04-26 05:42 | -38.95228 | 145.86184 | 29581 ft | 395 kts | 337° |
| 2026-04-26 05:42 | -38.92659 | 145.84903 | 29088 ft | 396 kts | 337° |
| 2026-04-26 05:42 | -38.90091 | 145.83623 | 28599 ft | 396 kts | 337° |
| 2026-04-26 05:42 | -38.87525 | 145.82341 | 28092 ft | 396 kts | 337° |
| 2026-04-26 05:43 | -38.84950 | 145.81060 | 27575 ft | 397 kts | 337° |
| 2026-04-26 05:43 | -38.82374 | 145.79782 | 27062 ft | 397 kts | 337° |
| 2026-04-26 05:43 | -38.79808 | 145.78509 | 26545 ft | 394 kts | 337° |
| 2026-04-26 05:43 | -38.77264 | 145.77246 | 26053 ft | 390 kts | 337° |
| 2026-04-26 05:44 | -38.74744 | 145.75998 | 25560 ft | 387 kts | 337° |
| 2026-04-26 05:44 | -38.72248 | 145.74761 | 25222 ft | 381 kts | 337° |
| 2026-04-26 05:44 | -38.69777 | 145.73534 | 24912 ft | 381 kts | 337° |
| 2026-04-26 05:44 | -38.67276 | 145.72293 | 24090 ft | 388 kts | 337° |
| 2026-04-26 05:45 | -38.64809 | 145.71070 | 23716 ft | 381 kts | 337° |
| 2026-04-26 05:45 | -38.62343 | 145.69849 | 23103 ft | 379 kts | 337° |
| 2026-04-26 05:45 | -38.59893 | 145.68639 | 22627 ft | 375 kts | 338° |
| 2026-04-26 05:45 | -38.57472 | 145.67446 | 22188 ft | 370 kts | 338° |
| 2026-04-26 05:46 | -38.55079 | 145.66267 | 21748 ft | 367 kts | 338° |
| 2026-04-26 05:46 | -38.52708 | 145.65099 | 21300 ft | 363 kts | 338° |
| 2026-04-26 05:46 | -38.50359 | 145.63937 | 20852 ft | 360 kts | 336° |
| 2026-04-26 05:46 | -38.48173 | 145.62494 | 20408 ft | 348 kts | 327° |
| 2026-04-26 05:47 | -38.46267 | 145.60621 | 19963 ft | 345 kts | 318° |
| 2026-04-26 05:47 | -38.44649 | 145.58365 | 19520 ft | 344 kts | 310° |
| 2026-04-26 05:47 | -38.43178 | 145.55972 | 19060 ft | 341 kts | 311° |
| 2026-04-26 05:47 | -38.41715 | 145.53610 | 18615 ft | 338 kts | 311° |
| 2026-04-26 05:48 | -38.40266 | 145.51283 | 18314 ft | 324 kts | 311° |
| 2026-04-26 05:48 | -38.38917 | 145.49115 | 17854 ft | 309 kts | 311° |
| 2026-04-26 05:48 | -38.37594 | 145.46991 | 17155 ft | 303 kts | 311° |
| 2026-04-26 05:48 | -38.36294 | 145.44900 | 16435 ft | 299 kts | 310° |
| 2026-04-26 05:49 | -38.35014 | 145.42830 | 15820 ft | 292 kts | 307° |
| 2026-04-26 05:49 | -38.33002 | 145.38586 | 15044 ft | 273 kts | 302° |
| 2026-04-26 05:49 | -38.32055 | 145.36506 | 14504 ft | 270 kts | 302° |
| 2026-04-26 05:50 | -38.31100 | 145.34441 | 14146 ft | 270 kts | 302° |
| 2026-04-26 05:50 | -38.30142 | 145.32390 | 13832 ft | 269 kts | 302° |
| 2026-04-26 05:50 | -38.29183 | 145.30358 | 13480 ft | 268 kts | 302° |
| 2026-04-26 05:50 | -38.28224 | 145.28332 | 13137 ft | 266 kts | 302° |
| 2026-04-26 05:51 | -38.27269 | 145.26317 | 12789 ft | 265 kts | 302° |
| 2026-04-26 05:51 | -38.26316 | 145.24314 | 12443 ft | 265 kts | 302° |
| 2026-04-26 05:51 | -38.25361 | 145.22311 | 12093 ft | 264 kts | 302° |
| 2026-04-26 05:51 | -38.24406 | 145.20310 | 11754 ft | 264 kts | 302° |
| 2026-04-26 05:52 | -38.23455 | 145.18321 | 11422 ft | 263 kts | 302° |
| 2026-04-26 05:52 | -38.22515 | 145.16334 | 11102 ft | 262 kts | 299° |
| 2026-04-26 05:52 | -38.21937 | 145.14136 | 10798 ft | 263 kts | 284° |
| 2026-04-26 05:52 | -38.21593 | 145.11851 | 10477 ft | 263 kts | 282° |
| 2026-04-26 05:53 | -38.21265 | 145.09533 | 9967 ft | 270 kts | 282° |
| 2026-04-26 05:53 | -38.20933 | 145.07170 | 9536 ft | 272 kts | 282° |
| 2026-04-26 05:53 | -38.20599 | 145.04809 | 9215 ft | 271 kts | 282° |
| 2026-04-26 05:53 | -38.20265 | 145.02467 | 9004 ft | 268 kts | 282° |
| 2026-04-26 05:54 | -38.19933 | 145.00134 | 8987 ft | 269 kts | 282° |
| 2026-04-26 05:54 | -38.19600 | 144.97789 | 8991 ft | 269 kts | 282° |
| 2026-04-26 05:54 | -38.19270 | 144.95472 | 8990 ft | 270 kts | 282° |
| 2026-04-26 05:54 | -38.18938 | 144.93124 | 8995 ft | 270 kts | 282° |
| 2026-04-26 05:55 | -38.18609 | 144.90778 | 8992 ft | 270 kts | 282° |
| 2026-04-26 05:55 | -38.18282 | 144.88435 | 8994 ft | 270 kts | 282° |
| 2026-04-26 05:55 | -38.17881 | 144.86132 | 8986 ft | 260 kts | 293° |
| 2026-04-26 05:55 | -38.16960 | 144.84224 | 8990 ft | 255 kts | 314° |
| 2026-04-26 05:56 | -38.15517 | 144.82911 | 8975 ft | 262 kts | 335° |
| 2026-04-26 05:56 | -38.13727 | 144.82401 | 8389 ft | 269 kts | 359° |
| 2026-04-26 05:56 | -38.11851 | 144.82649 | 7649 ft | 273 kts | 4° |
| 2026-04-26 05:56 | -38.09962 | 144.82950 | 6982 ft | 273 kts | 4° |
| 2026-04-26 05:57 | -38.08078 | 144.83249 | 6345 ft | 272 kts | 3° |
| 2026-04-26 05:57 | -38.06224 | 144.83538 | 6042 ft | 266 kts | 3° |
| 2026-04-26 05:57 | -38.04371 | 144.83819 | 5987 ft | 269 kts | 3° |
| 2026-04-26 05:57 | -38.02513 | 144.84094 | 5989 ft | 269 kts | 2° |
| 2026-04-26 05:58 | -38.00655 | 144.84365 | 5985 ft | 269 kts | 2° |
| 2026-04-26 05:58 | -37.98789 | 144.84634 | 5767 ft | 270 kts | 2° |
| 2026-04-26 05:58 | -37.96919 | 144.84905 | 5352 ft | 270 kts | 3° |
| 2026-04-26 05:58 | -37.95054 | 144.85178 | 4669 ft | 270 kts | 3° |
| 2026-04-26 05:59 | -37.93189 | 144.85453 | 4062 ft | 268 kts | 3° |
| 2026-04-26 05:59 | -37.91392 | 144.85719 | 3841 ft | 250 kts | 4° |
| 2026-04-26 05:59 | -37.89733 | 144.85966 | 3727 ft | 230 kts | 3° |
| 2026-04-26 05:59 | -37.88210 | 144.86193 | 3632 ft | 214 kts | 3° |
| 2026-04-26 06:00 | -37.86752 | 144.86407 | 3538 ft | 209 kts | 3° |
| 2026-04-26 06:00 | -37.85308 | 144.86617 | 3455 ft | 208 kts | 3° |
| 2026-04-26 06:00 | -37.83872 | 144.86827 | 3372 ft | 207 kts | 2° |
| 2026-04-26 06:00 | -37.82449 | 144.86725 | 3164 ft | 206 kts | 348° |
| 2026-04-26 06:01 | -37.81048 | 144.86462 | 2872 ft | 202 kts | 349° |
| 2026-04-26 06:01 | -37.79658 | 144.86194 | 2608 ft | 203 kts | 349° |
| 2026-04-26 06:01 | -37.78267 | 144.85928 | 2324 ft | 202 kts | 350° |
| 2026-04-26 06:01 | -37.76880 | 144.85664 | 2048 ft | 201 kts | 350° |
| 2026-04-26 06:02 | -37.75527 | 144.85405 | 1763 ft | 191 kts | 351° |
| 2026-04-26 06:02 | -37.74259 | 144.85166 | 1536 ft | 177 kts | 351° |
| 2026-04-26 06:02 | -37.73109 | 144.84952 | 1286 ft | 161 kts | 349° |
| 2026-04-26 06:02 | -37.72053 | 144.84755 | 1075 ft | 146 kts | 353° |
| 2026-04-26 06:03 | -37.71088 | 144.84574 | 888 ft | 138 kts | 355° |
| 2026-04-26 06:03 | -37.70148 | 144.84398 | 682 ft | 137 kts | 355° |
| 2026-04-26 06:03 | -37.69217 | 144.84223 | 507 ft | 132 kts | 352° |
| 2026-04-26 06:03 | -37.68306 | 144.84060 | 364 ft | 128 kts | 353° |
| 2026-04-26 06:04 | -37.67576 | 144.83916 | 367 ft | 82 kts | 352° |
| 2026-04-26 06:04 | -37.67259 | 144.83858 | 380 ft | 60 kts | 351° |
| 2026-04-26 06:04 | -37.66933 | 144.83868 | 390 ft | 19 kts | 17° |
| 2026-04-26 06:04 | -37.66867 | 144.83899 | 391 ft | 15 kts | 20° |
| 2026-04-26 06:05 | -37.66779 | 144.83944 | 392 ft | 14 kts | 25° |
| 2026-04-26 06:05 | -37.66721 | 144.84028 | 394 ft | 13 kts | 79° |
| 2026-04-26 06:05 | -37.66729 | 144.84134 | 393 ft | 12 kts | 118° |
| 2026-04-26 06:05 | -37.66812 | 144.84198 | 390 ft | 17 kts | 170° |
| 2026-04-26 06:06 | -37.66918 | 144.84218 | 387 ft | 16 kts | 171° |
| 2026-04-26 06:06 | -37.67038 | 144.84239 | 386 ft | 18 kts | 172° |
| 2026-04-26 06:06 | -37.67170 | 144.84265 | 384 ft | 21 kts | 171° |
| 2026-04-26 06:06 | -37.67323 | 144.84293 | 380 ft | 22 kts | 172° |
| 2026-04-26 06:07 | -37.67449 | 144.84315 | 378 ft | 11 kts | 161° |
| 2026-04-26 06:07 | -37.67475 | 144.84394 | 376 ft | 11 kts | 82° |
| 2026-04-26 06:07 | -37.67465 | 144.84483 | 380 ft | 9 kts | 82° |
| 2026-04-26 06:07 | -37.67454 | 144.84568 | 380 ft | 11 kts | 80° |
| 2026-04-26 06:08 | -37.67452 | 144.84617 | 380 ft | 1 kts | 108° |
| 2026-04-26 06:08 | -37.67459 | 144.84622 | 380 ft | 2 kts | 145° |
| 2026-04-26 06:08 | -37.67488 | 144.84630 | 379 ft | 7 kts | 170° |
| 2026-04-26 06:08 | -37.67521 | 144.84637 | 377 ft | 2 kts | 170° |
| 2026-04-26 06:09 | -37.67523 | 144.84637 | 377 ft | 0 kts | 170° |